Time;durP1;ratioP1;P1;durP2;ratioP2;P2;SDS_P1;SDS_P2;PMS_P1;PMS_P2;Temp;Humidity;BMP_temperature;BMP_pressure;BME280_temperature;BME280_humidity;BME280_pressure;Samples;Min_cycle;Max_cycle;Signal;HPM_P1;HPM_P2
2024/02/06 00:02:07;;;;;;;20.97;5.93;;;;;;;;;;5040084;28;20528;-58
2024/02/06 00:04:33;;;;;;;24.47;6.20;;;;;;;;;;5030356;28;20557;-56
2024/02/06 00:06:59;;;;;;;27.20;6.67;;;;;;;;;;5021374;28;20184;-55
2024/02/06 00:09:25;;;;;;;17.13;5.27;;;;;;;;;;5043558;28;20207;-57
2024/02/06 00:11:51;;;;;;;23.27;6.20;;;;;;;;;;5051563;28;20249;-57
2024/02/06 00:14:17;;;;;;;24.70;5.00;;;;;;;;;;5031642;28;20191;-58
2024/02/06 00:16:43;;;;;;;14.30;4.70;;;;;;;;;;5020831;28;20318;-58
2024/02/06 00:19:09;;;;;;;15.97;5.30;;;;;;;;;;5039776;28;20617;-56
2024/02/06 00:21:35;;;;;;;15.17;4.73;;;;;;;;;;5037091;28;20752;-56
2024/02/06 00:24:01;;;;;;;20.33;4.77;;;;;;;;;;5017638;28;20251;-55
2024/02/06 00:26:27;;;;;;;20.13;4.87;;;;;;;;;;5018826;28;20563;-57
2024/02/06 00:28:53;;;;;;;19.47;4.57;;;;;;;;;;5040138;28;20204;-54
2024/02/06 00:31:19;;;;;;;9.33;4.13;;;;;;;;;;5033696;28;20660;-57
2024/02/06 00:33:45;;;;;;;13.37;3.90;;;;;;;;;;5018315;28;20223;-57
2024/02/06 00:36:11;;;;;;;11.83;3.97;;;;;;;;;;5044996;28;20734;-58
2024/02/06 00:38:37;;;;;;;18.93;4.83;;;;;;;;;;5039410;28;20266;-56
2024/02/06 00:41:03;;;;;;;10.63;3.70;;;;;;;;;;5036418;28;20244;-58
2024/02/06 00:43:29;;;;;;;14.40;3.93;;;;;;;;;;5034229;28;20274;-58
2024/02/06 00:45:55;;;;;;;13.07;3.97;;;;;;;;;;5013012;28;20184;-56
2024/02/06 00:48:21;;;;;;;11.20;3.83;;;;;;;;;;5045479;28;20597;-57
2024/02/06 00:50:47;;;;;;;12.83;4.13;;;;;;;;;;5044328;28;20207;-55
2024/02/06 00:53:13;;;;;;;8.67;3.73;;;;;;;;;;5030456;28;20223;-55
2024/02/06 00:55:39;;;;;;;11.47;3.30;;;;;;;;;;5034223;28;20226;-52
2024/02/06 00:58:05;;;;;;;10.43;3.10;;;;;;;;;;5027495;28;20227;-56
2024/02/06 01:00:32;;;;;;;13.57;3.67;;;;;;;;;;5034976;28;20213;-54
2024/02/06 01:02:58;;;;;;;10.57;3.07;;;;;;;;;;5019726;28;20180;-56
2024/02/06 01:05:24;;;;;;;11.53;3.83;;;;;;;;;;5026939;28;20196;-58
2024/02/06 01:07:50;;;;;;;8.33;3.47;;;;;;;;;;5028072;28;20226;-57
2024/02/06 01:10:16;;;;;;;10.73;3.03;;;;;;;;;;5045541;28;20212;-56
2024/02/06 01:12:42;;;;;;;6.63;2.70;;;;;;;;;;5026574;28;20219;-57
2024/02/06 01:15:08;;;;;;;11.53;3.13;;;;;;;;;;5035641;28;20196;-60
2024/02/06 01:17:34;;;;;;;15.20;3.00;;;;;;;;;;5051908;28;20183;-57
2024/02/06 01:20:00;;;;;;;9.57;2.67;;;;;;;;;;5027144;28;20699;-60
2024/02/06 01:22:26;;;;;;;8.00;3.00;;;;;;;;;;5039400;28;20271;-55
2024/02/06 01:24:52;;;;;;;6.83;2.70;;;;;;;;;;5048664;28;20236;-59
2024/02/06 01:27:19;;;;;;;9.07;2.80;;;;;;;;;;5027232;28;20658;-59
2024/02/06 01:29:44;;;;;;;4.17;2.27;;;;;;;;;;5036146;28;20202;-55
2024/02/06 01:32:10;;;;;;;11.00;2.50;;;;;;;;;;5027251;28;20184;-54
2024/02/06 01:34:36;;;;;;;7.20;3.00;;;;;;;;;;5039647;28;20279;-56
2024/02/06 01:37:02;;;;;;;8.50;2.30;;;;;;;;;;5037593;28;20584;-60
2024/02/06 01:39:28;;;;;;;6.53;2.57;;;;;;;;;;5026892;28;20239;-57
2024/02/06 01:41:54;;;;;;;5.90;2.03;;;;;;;;;;5020991;28;20269;-55
2024/02/06 01:44:24;;;;;;;5.40;2.07;;;;;;;;;;5051929;28;20198;-58
2024/02/06 01:46:53;;;;;;;7.47;2.43;;;;;;;;;;5026635;28;20791;-55
2024/02/06 01:49:20;;;;;;;3.90;2.37;;;;;;;;;;5031019;28;20204;-58
2024/02/06 01:51:47;;;;;;;3.90;2.00;;;;;;;;;;5047552;28;20665;-59
2024/02/06 01:54:13;;;;;;;15.17;4.27;;;;;;;;;;5048547;28;20192;-58
2024/02/06 01:56:39;;;;;;;7.37;2.10;;;;;;;;;;5045762;28;20584;-55
2024/02/06 01:59:06;;;;;;;8.73;2.40;;;;;;;;;;5043108;28;20304;-58
2024/02/06 02:01:32;;;;;;;6.23;2.10;;;;;;;;;;5019882;28;20717;-58
2024/02/06 02:03:59;;;;;;;7.03;2.03;;;;;;;;;;5032348;28;20183;-57
2024/02/06 02:06:25;;;;;;;9.53;3.00;;;;;;;;;;5042536;28;20175;-57
2024/02/06 02:08:51;;;;;;;7.97;2.20;;;;;;;;;;5043146;28;20278;-55
2024/02/06 02:11:17;;;;;;;4.97;2.00;;;;;;;;;;5026759;28;20270;-57
2024/02/06 02:13:44;;;;;;;8.50;2.27;;;;;;;;;;5027816;28;20184;-58
2024/02/06 02:16:10;;;;;;;5.20;2.60;;;;;;;;;;5049237;28;20252;-56
2024/02/06 02:18:37;;;;;;;4.87;2.40;;;;;;;;;;5051146;28;20565;-55
2024/02/06 02:21:09;;;;;;;5.97;2.90;;;;;;;;;;5048007;28;20558;-57
2024/02/06 02:23:36;;;;;;;8.70;2.53;;;;;;;;;;5039620;28;20663;-58
2024/02/06 02:26:02;;;;;;;4.87;2.37;;;;;;;;;;5031451;28;20277;-58
2024/02/06 02:28:29;;;;;;;7.20;2.60;;;;;;;;;;5019562;28;20606;-58
2024/02/06 02:30:55;;;;;;;5.80;2.13;;;;;;;;;;5036047;28;20742;-57
2024/02/06 02:33:21;;;;;;;6.47;2.87;;;;;;;;;;5039163;28;20241;-59
2024/02/06 02:35:50;;;;;;;8.33;2.40;;;;;;;;;;5038398;28;20581;-57
2024/02/06 02:38:19;;;;;;;6.50;2.53;;;;;;;;;;5039028;28;20179;-55
2024/02/06 02:40:45;;;;;;;5.33;2.70;;;;;;;;;;5030902;28;20797;-53
2024/02/06 02:43:11;;;;;;;7.47;2.80;;;;;;;;;;5030749;28;20207;-57
2024/02/06 02:45:36;;;;;;;8.60;3.10;;;;;;;;;;5036645;28;20191;-59
2024/02/06 02:48:03;;;;;;;7.83;3.13;;;;;;;;;;5016206;28;20188;-56
2024/02/06 02:50:28;;;;;;;8.33;2.90;;;;;;;;;;5035468;28;20199;-58
2024/02/06 02:52:54;;;;;;;11.57;3.03;;;;;;;;;;5042084;28;20542;-56
2024/02/06 02:55:20;;;;;;;8.07;2.90;;;;;;;;;;5024430;28;20230;-57
2024/02/06 02:57:46;;;;;;;11.00;3.10;;;;;;;;;;5027075;28;20181;-60
2024/02/06 03:00:13;;;;;;;4.10;2.70;;;;;;;;;;5048600;28;20257;-59
2024/02/06 03:02:38;;;;;;;8.37;2.97;;;;;;;;;;5042090;28;20222;-56
2024/02/06 03:05:05;;;;;;;11.00;2.83;;;;;;;;;;5032301;28;20196;-59
2024/02/06 03:07:31;;;;;;;11.97;3.00;;;;;;;;;;5038166;28;20191;-54
2024/02/06 03:09:56;;;;;;;8.70;2.80;;;;;;;;;;5037896;28;20679;-57
2024/02/06 03:12:31;;;;;;;10.10;3.00;;;;;;;;;;5022767;28;20182;-57
2024/02/06 03:14:57;;;;;;;6.97;2.77;;;;;;;;;;5022521;28;20185;-58
2024/02/06 03:17:23;;;;;;;8.13;3.20;;;;;;;;;;5033034;28;20659;-59
2024/02/06 03:19:49;;;;;;;6.80;2.50;;;;;;;;;;5034862;28;20270;-57
2024/02/06 03:22:15;;;;;;;8.93;3.00;;;;;;;;;;5029852;28;20196;-59
2024/02/06 03:24:41;;;;;;;10.00;3.03;;;;;;;;;;5032070;28;20212;-59
2024/02/06 03:27:07;;;;;;;6.13;2.83;;;;;;;;;;5034427;28;20191;-60
2024/02/06 03:29:33;;;;;;;9.90;3.30;;;;;;;;;;5008914;28;20548;-60
2024/02/06 03:31:59;;;;;;;9.53;2.57;;;;;;;;;;5019354;28;20176;-60
2024/02/06 03:34:25;;;;;;;5.43;2.77;;;;;;;;;;5042767;28;20180;-60
2024/02/06 03:36:51;;;;;;;8.77;3.40;;;;;;;;;;5041003;28;20230;-61
2024/02/06 03:39:17;;;;;;;5.33;2.70;;;;;;;;;;5049989;28;20341;-60
2024/02/06 03:41:43;;;;;;;11.07;2.73;;;;;;;;;;5041808;28;20277;-60
2024/02/06 03:44:09;;;;;;;9.97;2.80;;;;;;;;;;5037321;28;20203;-60
2024/02/06 03:46:35;;;;;;;5.77;2.80;;;;;;;;;;5032108;28;20184;-60
2024/02/06 03:49:04;;;;;;;8.13;3.10;;;;;;;;;;5029819;28;20225;-61
2024/02/06 03:51:30;;;;;;;7.77;3.03;;;;;;;;;;5038041;28;20616;-61
2024/02/06 03:53:56;;;;;;;10.17;2.77;;;;;;;;;;5021491;28;20664;-59
2024/02/06 03:56:22;;;;;;;7.97;2.80;;;;;;;;;;5025391;28;20200;-61
2024/02/06 03:58:48;;;;;;;8.43;3.07;;;;;;;;;;5025607;28;20671;-61
2024/02/06 04:01:14;;;;;;;12.47;2.90;;;;;;;;;;5023419;28;20603;-60
2024/02/06 04:03:40;;;;;;;11.47;3.00;;;;;;;;;;5041554;28;20564;-60
2024/02/06 04:06:06;;;;;;;6.43;2.30;;;;;;;;;;5046994;28;20191;-61
2024/02/06 04:08:32;;;;;;;11.57;2.67;;;;;;;;;;5026558;28;20191;-60
2024/02/06 04:10:58;;;;;;;7.83;2.63;;;;;;;;;;5031026;28;20584;-60
2024/02/06 04:13:24;;;;;;;7.50;2.40;;;;;;;;;;5014336;28;20226;-60
2024/02/06 04:15:50;;;;;;;6.30;2.70;;;;;;;;;;5045069;28;20211;-60
2024/02/06 04:18:16;;;;;;;9.47;2.80;;;;;;;;;;5033110;28;20178;-60
2024/02/06 04:20:42;;;;;;;7.87;2.60;;;;;;;;;;5034452;28;20234;-60
2024/02/06 04:23:08;;;;;;;8.07;2.03;;;;;;;;;;5031353;28;20190;-60
2024/02/06 04:25:34;;;;;;;9.30;2.30;;;;;;;;;;5021793;28;20180;-61
2024/02/06 04:28:00;;;;;;;7.00;2.50;;;;;;;;;;5018387;28;20649;-60
2024/02/06 04:30:26;;;;;;;7.23;2.83;;;;;;;;;;5037646;28;20269;-60
2024/02/06 04:32:53;;;;;;;9.10;2.70;;;;;;;;;;5037657;28;20183;-60
2024/02/06 04:35:19;;;;;;;7.50;2.13;;;;;;;;;;5040655;28;20258;-60
2024/02/06 04:37:45;;;;;;;7.23;2.37;;;;;;;;;;5032574;28;20312;-60
2024/02/06 04:40:11;;;;;;;6.83;2.60;;;;;;;;;;5020230;28;20222;-60
2024/02/06 04:42:37;;;;;;;9.97;2.37;;;;;;;;;;5037834;28;20191;-60
2024/02/06 04:45:04;;;;;;;7.63;2.63;;;;;;;;;;5031347;28;20206;-60
2024/02/06 04:47:32;;;;;;;9.50;2.27;;;;;;;;;;5027677;28;20674;-60
2024/02/06 04:49:58;;;;;;;9.67;2.20;;;;;;;;;;5013503;28;20719;-60
2024/02/06 04:52:26;;;;;;;10.17;2.63;;;;;;;;;;5041062;28;20179;-58
2024/02/06 04:54:52;;;;;;;7.40;2.27;;;;;;;;;;5023824;28;20527;-60
2024/02/06 04:57:18;;;;;;;6.70;2.20;;;;;;;;;;5036938;28;20257;-60
2024/02/06 04:59:43;;;;;;;5.47;2.03;;;;;;;;;;5004686;28;20196;-59
2024/02/06 05:02:09;;;;;;;9.07;2.60;;;;;;;;;;5038158;28;20195;-60
2024/02/06 05:04:36;;;;;;;8.30;2.43;;;;;;;;;;5043233;28;20168;-60
2024/02/06 05:07:02;;;;;;;7.93;2.10;;;;;;;;;;5028309;28;20198;-60
2024/02/06 05:09:28;;;;;;;5.33;2.17;;;;;;;;;;5028875;28;20230;-59
2024/02/06 05:11:54;;;;;;;10.27;2.37;;;;;;;;;;5045390;28;20595;-60
2024/02/06 05:14:20;;;;;;;5.80;1.87;;;;;;;;;;5045503;28;20258;-59
2024/02/06 05:16:46;;;;;;;6.33;2.50;;;;;;;;;;5036848;28;20249;-60
2024/02/06 05:19:14;;;;;;;8.13;2.20;;;;;;;;;;5023251;28;20207;-59
2024/02/06 05:21:40;;;;;;;7.20;2.10;;;;;;;;;;5036610;28;20168;-60
2024/02/06 05:24:07;;;;;;;6.20;2.50;;;;;;;;;;5014622;28;20661;-60
2024/02/06 05:26:33;;;;;;;4.83;2.20;;;;;;;;;;5038424;28;20266;-59
2024/02/06 05:28:58;;;;;;;10.10;2.30;;;;;;;;;;5032362;28;20286;-59
2024/02/06 05:31:24;;;;;;;6.33;2.50;;;;;;;;;;5045154;28;20187;-57
2024/02/06 05:33:50;;;;;;;6.40;2.37;;;;;;;;;;5052143;28;20582;-59
2024/02/06 05:36:16;;;;;;;5.27;1.90;;;;;;;;;;5051139;28;20241;-59
2024/02/06 05:38:42;;;;;;;7.37;1.90;;;;;;;;;;5037423;28;20184;-59
2024/02/06 05:41:15;;;;;;;15.63;2.13;;;;;;;;;;5042164;28;20208;-57
2024/02/06 05:43:42;;;;;;;8.50;2.63;;;;;;;;;;5043801;28;20195;-57
2024/02/06 05:46:08;;;;;;;6.53;2.13;;;;;;;;;;5051331;28;20187;-54
2024/02/06 05:48:34;;;;;;;7.53;2.13;;;;;;;;;;5046654;28;20551;-58
2024/02/06 05:51:01;;;;;;;13.57;2.57;;;;;;;;;;5040906;28;20265;-58
2024/02/06 05:53:27;;;;;;;5.57;2.33;;;;;;;;;;5051763;28;20566;-57
2024/02/06 05:55:53;;;;;;;7.63;2.20;;;;;;;;;;5034895;28;20696;-55
2024/02/06 05:58:20;;;;;;;10.03;2.80;;;;;;;;;;5031666;28;20306;-61
2024/02/06 06:00:46;;;;;;;8.47;2.23;;;;;;;;;;5030517;28;20202;-58
2024/02/06 06:03:12;;;;;;;6.33;3.03;;;;;;;;;;5034880;28;20187;-58
2024/02/06 06:05:38;;;;;;;10.20;2.90;;;;;;;;;;5051305;28;20734;-57
2024/02/06 06:08:04;;;;;;;4.00;1.93;;;;;;;;;;5050968;28;20322;-58
2024/02/06 06:10:30;;;;;;;9.90;2.50;;;;;;;;;;5029007;28;20206;-57
2024/02/06 06:12:56;;;;;;;5.67;2.03;;;;;;;;;;5039577;28;20184;-56
2024/02/06 06:15:22;;;;;;;3.90;1.87;;;;;;;;;;5027591;28;20180;-58
2024/02/06 06:17:48;;;;;;;8.90;2.20;;;;;;;;;;5018387;28;20184;-58
2024/02/06 06:20:14;;;;;;;6.33;2.53;;;;;;;;;;5033681;28;20289;-57
2024/02/06 06:22:40;;;;;;;7.60;2.53;;;;;;;;;;5030785;28;20548;-57
2024/02/06 06:25:06;;;;;;;12.97;3.10;;;;;;;;;;5035926;28;20187;-59
2024/02/06 06:27:32;;;;;;;13.87;2.93;;;;;;;;;;5023806;28;20187;-58
2024/02/06 06:29:58;;;;;;;5.83;2.43;;;;;;;;;;5013345;28;20210;-58
2024/02/06 06:32:24;;;;;;;8.10;2.20;;;;;;;;;;5039334;28;20207;-57
2024/02/06 06:34:50;;;;;;;8.80;2.73;;;;;;;;;;5038750;28;20179;-56
2024/02/06 06:37:18;;;;;;;8.20;2.03;;;;;;;;;;5049492;28;20669;-58
2024/02/06 06:39:45;;;;;;;6.30;2.60;;;;;;;;;;5050839;28;20574;-57
2024/02/06 06:42:11;;;;;;;6.00;2.83;;;;;;;;;;5034396;28;20210;-58
2024/02/06 06:44:37;;;;;;;9.60;2.37;;;;;;;;;;5027723;28;20187;-58
2024/02/06 06:47:02;;;;;;;11.63;2.70;;;;;;;;;;5031005;28;20188;-57
2024/02/06 06:49:29;;;;;;;10.03;2.50;;;;;;;;;;5037894;28;20254;-57
2024/02/06 06:51:55;;;;;;;9.07;3.40;;;;;;;;;;5038658;28;20183;-58
2024/02/06 06:54:20;;;;;;;7.97;2.70;;;;;;;;;;5030315;28;20202;-57
2024/02/06 06:56:47;;;;;;;8.73;3.33;;;;;;;;;;5031308;28;20208;-57
2024/02/06 06:59:13;;;;;;;8.47;3.40;;;;;;;;;;5035384;28;20493;-56
2024/02/06 07:01:38;;;;;;;6.50;3.50;;;;;;;;;;5022331;28;20179;-57
2024/02/06 07:04:05;;;;;;;10.50;3.53;;;;;;;;;;5017593;28;20192;-57
2024/02/06 07:06:31;;;;;;;10.27;3.03;;;;;;;;;;5031769;28;20280;-57
2024/02/06 07:08:57;;;;;;;9.37;3.13;;;;;;;;;;5035396;28;20777;-58
2024/02/06 07:11:23;;;;;;;9.03;2.90;;;;;;;;;;5030098;28;20179;-57
2024/02/06 07:13:49;;;;;;;7.57;2.60;;;;;;;;;;5038606;28;20179;-56
2024/02/06 07:16:15;;;;;;;8.83;3.40;;;;;;;;;;5031911;28;20216;-54
2024/02/06 07:18:41;;;;;;;7.27;2.40;;;;;;;;;;5029418;28;20192;-57
2024/02/06 07:21:07;;;;;;;6.00;2.63;;;;;;;;;;5029673;28;20225;-57
2024/02/06 07:23:33;;;;;;;12.87;2.77;;;;;;;;;;5045249;28;20540;-58
2024/02/06 07:26:00;;;;;;;8.80;3.10;;;;;;;;;;5037716;28;20255;-57
2024/02/06 07:28:26;;;;;;;7.30;2.77;;;;;;;;;;5034138;28;20187;-57
2024/02/06 07:30:52;;;;;;;12.33;2.77;;;;;;;;;;5035110;28;20690;-59
2024/02/06 07:33:18;;;;;;;5.43;2.50;;;;;;;;;;5035231;28;20275;-59
2024/02/06 07:35:44;;;;;;;6.07;2.50;;;;;;;;;;5040786;28;20398;-57
2024/02/06 07:38:10;;;;;;;9.30;3.10;;;;;;;;;;5047273;28;20186;-57
2024/02/06 07:40:36;;;;;;;5.83;2.80;;;;;;;;;;5048836;28;20560;-58
2024/02/06 07:43:02;;;;;;;5.07;3.00;;;;;;;;;;5022409;28;20245;-57
2024/02/06 07:45:28;;;;;;;7.53;2.63;;;;;;;;;;5035649;28;20176;-57
2024/02/06 07:47:54;;;;;;;9.97;2.93;;;;;;;;;;5021041;28;20184;-53
2024/02/06 07:50:20;;;;;;;7.50;2.90;;;;;;;;;;5048541;28;20843;-56
2024/02/06 07:52:46;;;;;;;9.30;3.37;;;;;;;;;;5040715;28;20183;-59
2024/02/06 07:55:12;;;;;;;8.77;2.80;;;;;;;;;;5048696;28;20328;-57
2024/02/06 07:57:38;;;;;;;5.80;2.67;;;;;;;;;;5048574;28;20175;-58
2024/02/06 08:00:04;;;;;;;9.03;2.83;;;;;;;;;;5032263;28;20213;-56
2024/02/06 08:02:31;;;;;;;9.37;2.70;;;;;;;;;;5028024;28;20574;-54
2024/02/06 08:04:57;;;;;;;6.20;2.40;;;;;;;;;;5045202;28;20167;-59
2024/02/06 08:07:25;;;;;;;8.27;2.77;;;;;;;;;;5008696;28;20212;-57
2024/02/06 08:09:51;;;;;;;6.53;2.30;;;;;;;;;;5040493;28;20289;-57
2024/02/06 08:12:17;;;;;;;9.33;2.67;;;;;;;;;;5040330;28;20194;-57
2024/02/06 08:14:43;;;;;;;4.63;2.20;;;;;;;;;;5019538;28;20189;-57
2024/02/06 08:17:10;;;;;;;8.10;2.50;;;;;;;;;;5028516;28;20207;-57
2024/02/06 08:19:36;;;;;;;9.57;3.43;;;;;;;;;;5032351;28;20282;-59
2024/02/06 08:22:02;;;;;;;9.37;2.83;;;;;;;;;;5031990;28;20187;-58
2024/02/06 08:24:28;;;;;;;7.57;2.53;;;;;;;;;;5040737;28;20604;-58
2024/02/06 08:26:54;;;;;;;7.83;2.63;;;;;;;;;;5032449;28;20180;-59
2024/02/06 08:29:20;;;;;;;9.67;2.83;;;;;;;;;;5021664;28;20214;-57
2024/02/06 08:31:46;;;;;;;9.60;2.80;;;;;;;;;;5041835;28;20202;-58
2024/02/06 08:34:13;;;;;;;13.17;2.90;;;;;;;;;;5018756;28;20224;-58
2024/02/06 08:36:40;;;;;;;8.30;2.67;;;;;;;;;;5001911;28;20203;-60
2024/02/06 08:39:06;;;;;;;10.23;2.80;;;;;;;;;;5037703;28;20207;-57
2024/02/06 08:41:35;;;;;;;7.77;3.10;;;;;;;;;;5021610;28;20651;-56
2024/02/06 08:44:01;;;;;;;8.43;2.47;;;;;;;;;;5045355;28;20214;-58
2024/02/06 08:46:27;;;;;;;6.23;2.77;;;;;;;;;;5031542;28;20811;-57
2024/02/06 08:48:54;;;;;;;7.13;2.67;;;;;;;;;;5024237;28;20208;-56
2024/02/06 08:51:20;;;;;;;10.43;3.07;;;;;;;;;;5036380;28;20262;-59
2024/02/06 08:53:46;;;;;;;10.50;3.17;;;;;;;;;;5035155;28;20183;-59
2024/02/06 08:56:12;;;;;;;10.70;2.83;;;;;;;;;;5047182;28;20214;-58
2024/02/06 08:58:38;;;;;;;7.97;3.07;;;;;;;;;;5032005;28;20327;-59
2024/02/06 09:01:04;;;;;;;10.60;3.20;;;;;;;;;;5029101;28;20270;-59
2024/02/06 09:03:30;;;;;;;8.00;2.83;;;;;;;;;;5032496;28;20267;-56
2024/02/06 09:05:56;;;;;;;9.50;2.83;;;;;;;;;;5037933;28;20188;-59
2024/02/06 09:08:22;;;;;;;6.63;2.70;;;;;;;;;;5033530;28;20278;-60
2024/02/06 09:10:48;;;;;;;6.73;3.00;;;;;;;;;;5041883;28;20213;-59
2024/02/06 09:13:14;;;;;;;7.97;2.63;;;;;;;;;;5047288;28;20175;-57
2024/02/06 09:15:40;;;;;;;7.27;3.20;;;;;;;;;;5039000;28;20781;-58
2024/02/06 09:18:06;;;;;;;4.87;2.90;;;;;;;;;;5031871;28;20273;-60
2024/02/06 09:20:32;;;;;;;8.57;3.03;;;;;;;;;;5043089;28;20214;-57
2024/02/06 09:22:58;;;;;;;9.20;2.93;;;;;;;;;;5035633;28;20676;-60
2024/02/06 09:25:24;;;;;;;10.67;3.10;;;;;;;;;;5027845;28;20244;-60
2024/02/06 09:27:50;;;;;;;9.17;4.20;;;;;;;;;;5035390;28;20613;-60
2024/02/06 09:30:17;;;;;;;12.73;3.33;;;;;;;;;;5034477;28;20325;-60
2024/02/06 09:32:43;;;;;;;6.80;3.30;;;;;;;;;;5046370;28;20207;-61
2024/02/06 09:35:10;;;;;;;6.50;3.27;;;;;;;;;;5050359;28;20187;-60
2024/02/06 09:37:39;;;;;;;10.73;3.17;;;;;;;;;;5043642;28;20203;-60
2024/02/06 09:40:06;;;;;;;10.23;3.30;;;;;;;;;;5032900;28;20298;-60
2024/02/06 09:42:32;;;;;;;12.40;3.33;;;;;;;;;;4994204;28;20201;-60
2024/02/06 09:44:59;;;;;;;12.00;3.37;;;;;;;;;;5027923;28;20215;-59
2024/02/06 09:47:27;;;;;;;8.40;3.17;;;;;;;;;;5043466;28;20603;-59
2024/02/06 09:49:53;;;;;;;12.80;4.63;;;;;;;;;;5027148;28;20653;-60
2024/02/06 09:52:21;;;;;;;8.87;3.83;;;;;;;;;;5048064;28;20652;-61
2024/02/06 09:54:50;;;;;;;5.80;3.27;;;;;;;;;;5023228;28;20233;-61
2024/02/06 09:57:20;;;;;;;12.57;5.30;;;;;;;;;;5032911;28;20714;-60
2024/02/06 09:59:47;;;;;;;9.70;3.70;;;;;;;;;;5034574;28;20252;-61
2024/02/06 10:02:13;;;;;;;6.77;3.43;;;;;;;;;;5038651;28;20184;-61
2024/02/06 10:04:39;;;;;;;9.27;3.37;;;;;;;;;;5033239;28;20321;-61
2024/02/06 10:07:05;;;;;;;6.07;3.10;;;;;;;;;;5022759;28;20271;-61
2024/02/06 10:09:31;;;;;;;11.47;2.87;;;;;;;;;;5041325;28;20628;-60
2024/02/06 10:11:58;;;;;;;10.40;3.27;;;;;;;;;;5044021;28;20270;-61
2024/02/06 10:14:25;;;;;;;6.40;3.30;;;;;;;;;;5027773;28;20215;-61
2024/02/06 10:16:51;;;;;;;9.00;3.27;;;;;;;;;;5032934;28;20213;-61
2024/02/06 10:19:17;;;;;;;10.10;3.13;;;;;;;;;;5025633;28;20219;-61
2024/02/06 10:21:43;;;;;;;8.30;3.10;;;;;;;;;;5038680;28;20175;-61
2024/02/06 10:24:09;;;;;;;7.47;3.03;;;;;;;;;;5029660;28;20195;-61
2024/02/06 10:26:35;;;;;;;9.20;3.07;;;;;;;;;;5020314;28;20198;-61
2024/02/06 10:29:08;;;;;;;9.17;3.00;;;;;;;;;;5042172;28;20215;-61
2024/02/06 10:31:34;;;;;;;7.70;3.60;;;;;;;;;;5024545;28;20187;-61
2024/02/06 10:34:11;;;;;;;6.37;2.93;;;;;;;;;;5017405;28;20191;-61
2024/02/06 10:36:37;;;;;;;11.53;3.03;;;;;;;;;;5037202;28;20218;-66
2024/02/06 10:39:06;;;;;;;10.53;4.00;;;;;;;;;;5050430;28;20298;-61
2024/02/06 10:41:32;;;;;;;6.63;3.47;;;;;;;;;;5050366;28;20183;-59
2024/02/06 10:43:59;;;;;;;9.07;3.60;;;;;;;;;;5041991;28;20393;-61
2024/02/06 10:46:25;;;;;;;10.53;2.93;;;;;;;;;;5026051;28;20188;-60
2024/02/06 10:48:52;;;;;;;10.90;4.03;;;;;;;;;;5018572;28;20250;-61
2024/02/06 10:51:24;;;;;;;14.13;5.37;;;;;;;;;;5040238;28;20192;-61
2024/02/06 10:53:50;;;;;;;8.00;4.07;;;;;;;;;;5034075;28;20183;-61
2024/02/06 10:56:19;;;;;;;9.10;3.43;;;;;;;;;;5038625;28;20277;-61
2024/02/06 10:58:51;;;;;;;9.57;3.97;;;;;;;;;;5036369;28;20182;-63
2024/02/06 11:01:17;;;;;;;11.40;4.00;;;;;;;;;;5033267;28;20188;-60
2024/02/06 11:03:47;;;;;;;11.80;4.33;;;;;;;;;;5035608;28;20253;-61
2024/02/06 11:06:36;;;;;;;6.60;3.67;;;;;;;;;;5044250;28;20693;-61
2024/02/06 11:09:04;;;;;;;7.10;3.57;;;;;;;;;;5018245;28;20219;-61
2024/02/06 11:11:31;;;;;;;10.43;3.70;;;;;;;;;;5035187;28;20261;-60
2024/02/06 11:13:57;;;;;;;8.83;3.47;;;;;;;;;;5007428;28;20934;-61
2024/02/06 11:16:25;;;;;;;7.70;3.30;;;;;;;;;;5032264;28;20250;-60
2024/02/06 11:19:17;;;;;;;10.57;3.93;;;;;;;;;;5050225;28;20261;-60
2024/02/06 11:21:45;;;;;;;8.33;3.83;;;;;;;;;;5038293;28;20178;-60
2024/02/06 11:24:12;;;;;;;11.27;3.77;;;;;;;;;;5037847;28;20197;-61
2024/02/06 11:26:39;;;;;;;11.07;4.13;;;;;;;;;;5025513;28;20184;-60
2024/02/06 11:29:09;;;;;;;9.33;4.07;;;;;;;;;;5034125;28;20211;-59
2024/02/06 11:31:38;;;;;;;11.77;4.53;;;;;;;;;;5019420;28;20190;-60
2024/02/06 11:34:13;;;;;;;8.60;4.10;;;;;;;;;;5024052;28;20188;-61
2024/02/06 11:36:41;;;;;;;9.00;4.43;;;;;;;;;;5042268;28;20191;-61
2024/02/06 11:39:15;;;;;;;11.27;5.10;;;;;;;;;;5030531;28;20200;-60
2024/02/06 11:41:42;;;;;;;13.73;4.87;;;;;;;;;;5037310;28;20183;-61
2024/02/06 11:44:12;;;;;;;13.07;4.73;;;;;;;;;;5023209;28;20199;-60
2024/02/06 11:46:48;;;;;;;14.73;4.43;;;;;;;;;;5033814;28;20171;-61
2024/02/06 11:49:21;;;;;;;15.23;5.40;;;;;;;;;;5044761;28;20541;-61
2024/02/06 11:51:54;;;;;;;13.57;5.10;;;;;;;;;;5025602;28;20180;-61
2024/02/06 11:54:20;;;;;;;12.73;5.47;;;;;;;;;;5020195;28;20210;-61
2024/02/06 11:56:46;;;;;;;10.83;4.87;;;;;;;;;;5030579;28;20200;-61
2024/02/06 11:59:12;;;;;;;12.27;5.57;;;;;;;;;;5033769;28;20219;-59
2024/02/06 12:01:39;;;;;;;13.60;5.67;;;;;;;;;;5035983;28;20495;-61
2024/02/06 12:04:05;;;;;;;16.93;6.37;;;;;;;;;;5040420;28;20281;-60
2024/02/06 12:06:32;;;;;;;9.07;4.97;;;;;;;;;;5040005;28;20190;-60
2024/02/06 12:09:02;;;;;;;15.33;6.00;;;;;;;;;;5040598;28;20547;-61
2024/02/06 12:11:29;;;;;;;12.47;5.07;;;;;;;;;;5041247;28;20279;-61
2024/02/06 12:13:59;;;;;;;18.70;7.20;;;;;;;;;;5011722;28;20184;-61
2024/02/06 12:16:25;;;;;;;20.07;7.00;;;;;;;;;;5047958;28;20202;-61
2024/02/06 12:18:51;;;;;;;15.77;6.17;;;;;;;;;;5032195;28;20187;-62
2024/02/06 12:21:24;;;;;;;15.50;6.03;;;;;;;;;;5031802;28;20183;-61
2024/02/06 12:24:02;;;;;;;17.80;6.40;;;;;;;;;;5048653;28;20557;-62
2024/02/06 12:26:28;;;;;;;16.67;6.10;;;;;;;;;;5024921;28;20176;-62
2024/02/06 12:29:05;;;;;;;12.70;5.80;;;;;;;;;;5032599;28;20212;-61
2024/02/06 12:31:33;;;;;;;15.87;6.20;;;;;;;;;;5028653;28;20321;-62
2024/02/06 12:34:00;;;;;;;15.23;5.80;;;;;;;;;;5032843;28;20259;-62
2024/02/06 12:36:26;;;;;;;13.67;5.93;;;;;;;;;;5036451;28;20751;-63
2024/02/06 12:38:55;;;;;;;16.40;6.40;;;;;;;;;;5026951;28;20185;-62
2024/02/06 12:41:23;;;;;;;11.17;5.37;;;;;;;;;;5033163;28;20547;-61
2024/02/06 12:43:52;;;;;;;14.20;5.90;;;;;;;;;;5047369;28;20281;-61
2024/02/06 12:46:19;;;;;;;12.47;5.57;;;;;;;;;;5051938;28;20599;-61
2024/02/06 12:48:45;;;;;;;15.97;5.73;;;;;;;;;;5038096;28;20253;-62
2024/02/06 12:51:11;;;;;;;12.70;5.13;;;;;;;;;;5033699;28;20191;-62
2024/02/06 12:53:37;;;;;;;11.03;5.57;;;7.30;99.90;;;;;;5034134;28;20180;-62
2024/02/06 12:56:02;;;;;;;21.50;6.90;;;9.70;99.90;;;;;;5036882;28;20207;-62
2024/02/06 12:58:28;;;;;;;14.83;6.27;;;9.60;99.90;;;;;;5043999;28;20183;-62
2024/02/06 13:00:55;;;;;;;19.73;5.97;;;9.70;99.90;;;;;;5036001;28;20277;-62
2024/02/06 13:03:21;;;;;;;16.33;5.97;;;9.80;99.90;;;;;;5027236;28;20214;-61
2024/02/06 13:05:56;;;;;;;14.73;6.37;;;9.70;99.90;;;;;;5028846;28;20211;-61
2024/02/06 13:08:25;;;;;;;18.03;6.23;;;9.60;99.90;;;;;;5036771;28;20196;-62
2024/02/06 13:10:51;;;;;;;14.57;5.80;;;9.60;99.90;;;;;;5019414;28;20211;-61
2024/02/06 13:13:18;;;;;;;15.73;6.67;;;9.50;99.90;;;;;;5017914;28;20528;-61
2024/02/06 13:15:44;;;;;;;12.27;5.50;;;9.50;99.90;;;;;;5045609;28;20207;-61
2024/02/06 13:18:19;;;;;;;19.03;6.37;;;9.60;99.90;;;;;;5016163;28;20187;-58
2024/02/06 13:20:56;;;;;;;20.77;6.97;;;9.60;99.90;;;;;;5034985;28;20200;-60
2024/02/06 13:23:23;;;;;;;16.43;6.13;;;9.70;99.90;;;;;;5026039;28;20619;-59
2024/02/06 13:25:49;;;;;;;21.37;6.10;;;9.70;99.90;;;;;;5011752;28;20219;-58
2024/02/06 13:28:15;;;;;;;18.73;6.27;;;9.70;99.90;;;;;;5011940;28;20244;-58
2024/02/06 13:30:41;;;;;;;14.30;5.43;;;9.80;99.90;;;;;;5031269;28;20574;-59
2024/02/06 13:33:07;;;;;;;14.80;5.53;;;9.80;99.90;;;;;;5043201;28;20270;-59
2024/02/06 13:35:33;;;;;;;19.07;5.83;;;9.70;99.90;;;;;;5051224;28;20203;-60
2024/02/06 13:38:00;;;;;;;15.50;5.67;;;9.70;99.90;;;;;;5051049;28;20210;-57
2024/02/06 13:40:25;;;;;;;16.57;5.50;;;9.80;99.90;;;;;;5026790;28;20203;-59
2024/02/06 13:42:51;;;;;;;18.83;4.93;;;9.80;99.90;;;;;;5044458;28;20218;-60
2024/02/06 13:45:17;;;;;;;13.37;5.47;;;9.80;99.90;;;;;;5032424;28;20267;-60
2024/02/06 13:47:42;;;;;;;14.80;5.23;;;9.80;99.90;;;;;;5034679;28;20184;-59
2024/02/06 13:50:08;;;;;;;16.23;5.17;;;9.90;99.90;;;;;;5035451;28;20250;-57
2024/02/06 13:52:34;;;;;;;11.77;5.00;;;9.80;99.90;;;;;;5039453;28;20686;-57
2024/02/06 13:55:00;;;;;;;11.50;5.37;;;9.80;99.90;;;;;;5031316;28;20187;-59
2024/02/06 13:57:25;;;;;;;21.90;5.30;;;9.90;99.90;;;;;;5038627;28;20207;-59
2024/02/06 13:59:51;;;;;;;12.93;4.43;;;9.80;99.90;;;;;;5046553;28;20207;-60
2024/02/06 14:02:16;;;;;;;21.00;5.70;;;9.90;99.90;;;;;;5032575;28;20195;-59
2024/02/06 14:04:42;;;;;;;15.73;5.37;;;9.90;99.90;;;;;;5022939;28;20176;-59
2024/02/06 14:07:14;;;;;;;16.53;5.43;;;9.80;99.90;;;;;;5039888;28;20195;-58
2024/02/06 14:09:39;;;;;;;14.77;4.83;;;9.80;99.90;;;;;;5051274;28;20815;-60
2024/02/06 14:12:05;;;;;;;11.83;5.00;;;9.80;99.90;;;;;;5042941;28;20272;-60
2024/02/06 14:14:31;;;;;;;14.73;5.50;;;9.80;99.90;;;;;;5034557;28;20184;-59
2024/02/06 14:16:57;;;;;;;19.47;5.17;;;9.70;99.90;;;;;;5042565;28;20698;-54
2024/02/06 14:19:22;;;;;;;13.77;5.47;;;9.60;99.90;;;;;;5026123;28;20206;-60
2024/02/06 14:21:48;;;;;;;14.60;5.03;;;9.60;99.90;;;;;;5034243;28;20179;-58